VietnamFixed distance
Vietnam Mountain Marathon 70km
21 Nov2020
Distance
70km
Finishers
157128 men29 women
Winning time
9:21:19h
Median pace
4.29km/h
Pace distribution
157 finishers · 3.56–7.48 km/h · mean 4.51
Every finisher ran the same 70 km course, so these paces are directly comparable.
Histogram of finisher pace. 157 finishers ranged from 3.56 to 7.48 kilometres per hour, with a mean of 4.51 and a median of 4.29. The busiest band is 3.5 to 4.0 kilometres per hour, with 52 finishers.
Results
Ranks 51–100 of 157
| Rank | Runner | Time | Pace | Cat. | Placing |
|---|---|---|---|---|---|
| 51 | HO Lon Team | 15:07:19h | 4.63 | M35 | 42nd M · 19th M35 |
| 52 | 15:08:33h | 4.62 | M35 | 43rd M · 20th M35 | |
| 53 | 15:13:18h | 4.60 | M35 | 44th M · 21st M35 | |
| 54 | Wiha Viet NAM | 15:20:47h | 4.56 | M65 | 45th M · 1st M65 |
| 55 | Napas Running Club | 15:21:13h | 4.56 | M40 | 46th M · 6th M40 |
| 56 | THO Hong | 15:22:36h | 4.55 | M23 | 47th M · 18th M23 |
| 57 | 15:24:34h | 4.54 | M45 | 48th M · 1st M45 | |
| 58 | Timesrunners | 15:27:16h | 4.53 | M40 | 49th M · 7th M40 |
| 59 | Trio69 | 15:32:22h | 4.50 | M35 | 50th M · 22nd M35 |
| 60 | Vpiron | 15:32:51h | 4.50 | M23 | 51st M · 19th M23 |
| 61 | Operation Smile Vietnam | 15:34:00h | 4.50 | WU23 | 10th F · 1st WU23 |
| 62 | LDR | 15:36:54h | 4.48 | M35 | 52nd M · 23rd M35 |
| 63 | Trio69 | 15:40:33h | 4.46 | W40 | 11th F · 1st W40 |
| 64 | Nokia | 15:40:33h | 4.46 | M45 | 53rd M · 2nd M45 |
| 65 | Empire City | 15:43:19h | 4.45 | M40 | 54th M · 8th M40 |
| 66 | Napas Running Club | 15:45:13h | 4.44 | M35 | 55th M · 24th M35 |
| 67 | SRC | 15:48:09h | 4.43 | M35 | 56th M · 25th M35 |
| 68 | R4B | 15:48:27h | 4.43 | M40 | 57th M · 9th M40 |
| 69 | Agrirun | 15:52:00h | 4.41 | M35 | 58th M · 26th M35 |
| 70 | 15:55:12h | 4.40 | W40 | 12th F · 2nd W40 | |
| 71 | 15:55:12h | 4.40 | M45 | 59th M · 3rd M45 | |
| 72 | Wiha Viet NAM | 15:56:48h | 4.39 | M40 | 60th M · 10th M40 |
| 73 | Napas Running Club | 16:03:08h | 4.36 | W35 | 13th F · 3rd W35 |
| 74 | HDR | 16:03:25h | 4.36 | M35 | 61st M · 27th M35 |
| 75 | Timesrunners | 16:03:32h | 4.36 | M40 | 62nd M · 11th M40 |
| 76 | Oucru | 16:04:56h | 4.35 | M23 | 63rd M · 20th M23 |
| 77 | Brff | 16:11:42h | 4.32 | M35 | 64th M · 28th M35 |
| 78 | 16:13:20h | 4.32 | W23 | 14th F · 8th W23 | |
| 79 | Greenstar Runners | 16:18:33h | 4.29 | M23 | 65th M · 21st M23 |
| 80 | Activ Runners | 16:18:49h | 4.29 | M35 | 66th M · 29th M35 |
| 81 | Team HEO DAT | 16:23:15h | 4.27 | M40 | 67th M · 12th M40 |
| 82 | Lions | 16:33:07h | 4.23 | M35 | 68th M · 30th M35 |
| 83 | CTY Tnhh TM Vinh BAO | 16:35:56h | 4.22 | M35 | 69th M · 31st M35 |
| 84 | VKL Runners | 16:37:16h | 4.21 | M23 | 70th M · 22nd M23 |
| 85 | MPS | 16:40:38h | 4.20 | M35 | 71st M · 32nd M35 |
| 86 | 16:41:08h | 4.20 | M35 | 72nd M · 33rd M35 | |
| 87 | Hcmc RC | 16:42:20h | 4.19 | M55 | 73rd M · 1st M55 |
| 88 | HDR | 16:44:51h | 4.18 | M35 | 74th M · 34th M35 |
| 89 | 16:45:37h | 4.18 | M40 | 75th M · 13th M40 | |
| 90 | 16:47:58h | 4.17 | M40 | 76th M · 14th M40 | |
| 91 | Trio69 | 16:50:56h | 4.16 | M23 | 77th M · 23rd M23 |
| 92 | Trio69 | 16:51:18h | 4.15 | M35 | 78th M · 35th M35 |
| 93 | 16:53:16h | 4.14 | W23 | 15th F · 9th W23 | |
| 94 | 16:59:02h | 4.12 | M35 | 79th M · 36th M35 | |
| 95 | 17:00:11h | 4.12 | M23 | 80th M · 24th M23 | |
| 96 | 17:00:11h | 4.12 | M23 | 80th M · 24th M23 | |
| 97 | Vpiron | 17:00:36h | 4.12 | W40 | 16th F · 3rd W40 |
| 98 | Team HEO DAT | 17:05:16h | 4.10 | M35 | 82nd M · 37th M35 |
| 99 | LDR | 17:13:02h | 4.07 | M40 | 83rd M · 15th M40 |
| 100 | 17:13:16h | 4.07 | W23 | 17th F · 10th W23 |
- 51HO Lon Team42nd M · 19th M35Time15:07:19hPace4.63Cat.M35
- 5243rd M · 20th M35Time15:08:33hPace4.62Cat.M35
- 5344th M · 21st M35Time15:13:18hPace4.60Cat.M35
- 54Wiha Viet NAM45th M · 1st M65Time15:20:47hPace4.56Cat.M65
- 55Napas Running Club46th M · 6th M40Time15:21:13hPace4.56Cat.M40
- 56THO Hong47th M · 18th M23Time15:22:36hPace4.55Cat.M23
- 5748th M · 1st M45Time15:24:34hPace4.54Cat.M45
- 58Timesrunners49th M · 7th M40Time15:27:16hPace4.53Cat.M40
- 59Trio6950th M · 22nd M35Time15:32:22hPace4.50Cat.M35
- 60Vpiron51st M · 19th M23Time15:32:51hPace4.50Cat.M23
- 61Operation Smile Vietnam10th F · 1st WU23Time15:34:00hPace4.50Cat.WU23
- 62LDR52nd M · 23rd M35Time15:36:54hPace4.48Cat.M35
- 63Trio6911th F · 1st W40Time15:40:33hPace4.46Cat.W40
- 64Nokia53rd M · 2nd M45Time15:40:33hPace4.46Cat.M45
- 65Empire City54th M · 8th M40Time15:43:19hPace4.45Cat.M40
- 66Napas Running Club55th M · 24th M35Time15:45:13hPace4.44Cat.M35
- 67SRC56th M · 25th M35Time15:48:09hPace4.43Cat.M35
- 68R4B57th M · 9th M40Time15:48:27hPace4.43Cat.M40
- 69Agrirun58th M · 26th M35Time15:52:00hPace4.41Cat.M35
- 7012th F · 2nd W40Time15:55:12hPace4.40Cat.W40
- 7159th M · 3rd M45Time15:55:12hPace4.40Cat.M45
- 72Wiha Viet NAM60th M · 10th M40Time15:56:48hPace4.39Cat.M40
- 73Napas Running Club13th F · 3rd W35Time16:03:08hPace4.36Cat.W35
- 74HDR61st M · 27th M35Time16:03:25hPace4.36Cat.M35
- 75Timesrunners62nd M · 11th M40Time16:03:32hPace4.36Cat.M40
- 76Oucru63rd M · 20th M23Time16:04:56hPace4.35Cat.M23
- 77Brff64th M · 28th M35Time16:11:42hPace4.32Cat.M35
- 7814th F · 8th W23Time16:13:20hPace4.32Cat.W23
- 79Greenstar Runners65th M · 21st M23Time16:18:33hPace4.29Cat.M23
- 80Activ Runners66th M · 29th M35Time16:18:49hPace4.29Cat.M35
- 81Team HEO DAT67th M · 12th M40Time16:23:15hPace4.27Cat.M40
- 82Lions68th M · 30th M35Time16:33:07hPace4.23Cat.M35
- 83CTY Tnhh TM Vinh BAO69th M · 31st M35Time16:35:56hPace4.22Cat.M35
- 84VKL Runners70th M · 22nd M23Time16:37:16hPace4.21Cat.M23
- 85MPS71st M · 32nd M35Time16:40:38hPace4.20Cat.M35
- 8672nd M · 33rd M35Time16:41:08hPace4.20Cat.M35
- 87Hcmc RC73rd M · 1st M55Time16:42:20hPace4.19Cat.M55
- 88HDR74th M · 34th M35Time16:44:51hPace4.18Cat.M35
- 8975th M · 13th M40Time16:45:37hPace4.18Cat.M40
- 9076th M · 14th M40Time16:47:58hPace4.17Cat.M40
- 91Trio6977th M · 23rd M23Time16:50:56hPace4.16Cat.M23
- 92Trio6978th M · 35th M35Time16:51:18hPace4.15Cat.M35
- 9315th F · 9th W23Time16:53:16hPace4.14Cat.W23
- 9479th M · 36th M35Time16:59:02hPace4.12Cat.M35
- 9580th M · 24th M23Time17:00:11hPace4.12Cat.M23
- 9680th M · 24th M23Time17:00:11hPace4.12Cat.M23
- 97Vpiron16th F · 3rd W40Time17:00:36hPace4.12Cat.W40
- 98Team HEO DAT82nd M · 37th M35Time17:05:16hPace4.10Cat.M35
- 99LDR83rd M · 15th M40Time17:13:02hPace4.07Cat.M40
- 10017th F · 10th W23Time17:13:16hPace4.07Cat.W23
Showing ranks 51–100 of 157